createdAt,value
2018-11-11T00:00:14.070Z,11.37
2018-11-11T00:01:19.604Z,11.29
2018-11-11T00:02:25.147Z,11.36
2018-11-11T00:03:30.680Z,11.37
2018-11-11T00:04:36.221Z,11.29
2018-11-11T00:05:41.759Z,11.36
2018-11-11T00:06:47.301Z,11.32
2018-11-11T00:07:52.827Z,11.32
2018-11-11T00:08:58.369Z,11.28
2018-11-11T00:10:03.913Z,11.35
2018-11-11T00:11:09.445Z,11.37
2018-11-11T00:12:14.983Z,11.36
2018-11-11T00:13:20.520Z,11.29
2018-11-11T00:14:26.058Z,11.29
2018-11-11T00:15:31.595Z,11.33
2018-11-11T00:16:37.126Z,11.29
2018-11-11T00:17:43.743Z,11.36
2018-11-11T00:18:48.203Z,11.32
2018-11-11T00:19:53.736Z,11.35
2018-11-11T00:20:59.279Z,11.37
2018-11-11T00:22:04.824Z,11.39
2018-11-11T00:23:10.358Z,11.37
2018-11-11T00:24:15.892Z,11.42
2018-11-11T00:25:21.423Z,11.32
2018-11-11T00:26:26.967Z,11.39
2018-11-11T00:27:32.502Z,11.46
2018-11-11T00:28:38.112Z,11.40
2018-11-11T00:29:43.574Z,11.42
2018-11-11T00:30:49.114Z,11.37
2018-11-11T00:31:54.657Z,11.42
2018-11-11T00:33:00.188Z,11.46
2018-11-11T00:34:05.727Z,11.42
2018-11-11T00:35:11.315Z,11.39
2018-11-11T00:36:16.798Z,11.46
2018-11-11T00:37:22.338Z,11.44
2018-11-11T00:38:27.879Z,11.49
2018-11-11T00:39:33.469Z,11.43
2018-11-11T00:40:38.947Z,11.47
2018-11-11T00:41:44.483Z,11.43
2018-11-11T00:42:50.025Z,11.47
2018-11-11T00:43:55.637Z,11.39
2018-11-11T00:45:01.104Z,11.49
2018-11-11T00:46:06.647Z,11.51
2018-11-11T00:47:12.173Z,11.42
2018-11-11T00:48:17.884Z,11.46
2018-11-11T00:49:23.392Z,11.43
2018-11-11T00:50:28.789Z,11.43
2018-11-11T00:51:34.323Z,11.51
2018-11-11T00:52:39.857Z,11.54
2018-11-11T00:53:45.397Z,11.51
2018-11-11T00:54:50.938Z,11.58
2018-11-11T00:55:56.503Z,11.51
2018-11-11T00:57:02.015Z,11.49
2018-11-11T00:58:07.547Z,11.55
2018-11-11T00:59:13.093Z,11.57
2018-11-11T01:00:18.617Z,11.54
2018-11-11T01:01:24.157Z,11.57
2018-11-11T01:02:29.698Z,11.60
2018-11-11T01:03:35.235Z,11.60
2018-11-11T01:04:40.825Z,11.58
2018-11-11T01:05:46.307Z,11.55
2018-11-11T01:06:51.849Z,11.54
2018-11-11T01:07:57.384Z,11.61
2018-11-11T01:09:02.916Z,11.61
2018-11-11T01:10:08.457Z,11.61
2018-11-11T01:11:13.993Z,11.62
2018-11-11T01:12:19.566Z,11.65
2018-11-11T01:13:25.066Z,11.54
2018-11-11T01:14:30.619Z,11.54
2018-11-11T01:15:36.140Z,11.62
2018-11-11T01:16:41.689Z,11.61
2018-11-11T01:17:47.225Z,11.57
2018-11-11T01:18:52.761Z,11.65
2018-11-11T01:19:58.299Z,11.57
2018-11-11T01:21:03.831Z,11.69
2018-11-11T01:22:09.370Z,11.65
2018-11-11T01:23:14.900Z,11.65
2018-11-11T01:24:20.444Z,11.65
2018-11-11T01:25:25.979Z,11.65
2018-11-11T01:26:31.519Z,11.57
2018-11-11T01:27:37.050Z,11.62
2018-11-11T01:28:42.590Z,11.64
2018-11-11T01:29:48.138Z,11.65
2018-11-11T01:30:53.664Z,11.61
2018-11-11T01:31:59.211Z,11.58
2018-11-11T01:33:04.748Z,11.47
2018-11-11T01:34:10.280Z,11.61
2018-11-11T01:35:15.812Z,11.54
2018-11-11T01:36:21.352Z,11.54
2018-11-11T01:37:26.889Z,11.60
2018-11-11T01:38:32.475Z,11.64
2018-11-11T01:39:37.963Z,11.57
2018-11-11T01:40:43.503Z,11.52
2018-11-11T01:41:49.040Z,11.62
2018-11-11T01:42:54.578Z,11.60
2018-11-11T01:44:00.164Z,11.57
2018-11-11T01:45:05.653Z,11.57
2018-11-11T01:46:11.184Z,11.51
2018-11-11T01:47:16.735Z,11.65
2018-11-11T01:48:22.260Z,11.64
2018-11-11T01:49:27.804Z,11.58
2018-11-11T01:50:33.339Z,11.58
2018-11-11T01:51:38.881Z,11.55
2018-11-11T01:52:44.416Z,11.58
2018-11-11T01:53:49.948Z,11.58
2018-11-11T01:54:55.486Z,11.64
2018-11-11T01:56:01.031Z,11.57
2018-11-11T01:57:06.561Z,11.61
2018-11-11T01:58:12.099Z,11.62
2018-11-11T01:59:17.646Z,11.58
2018-11-11T02:00:23.170Z,11.62
2018-11-11T02:01:28.717Z,11.54
2018-11-11T02:02:34.249Z,11.52
2018-11-11T02:03:39.783Z,11.52
2018-11-11T02:04:45.328Z,11.65
2018-11-11T02:05:50.856Z,11.57
2018-11-11T02:06:56.399Z,11.54
2018-11-11T02:08:01.948Z,11.57
2018-11-11T02:09:07.474Z,11.64
2018-11-11T02:10:13.008Z,11.58
2018-11-11T02:11:18.714Z,11.61
2018-11-11T02:12:24.086Z,11.62
2018-11-11T02:13:29.624Z,11.58
2018-11-11T02:14:35.165Z,11.54
2018-11-11T02:15:40.699Z,11.61
2018-11-11T02:16:46.233Z,11.57
2018-11-11T02:17:51.770Z,11.60
2018-11-11T02:18:57.310Z,11.55
2018-11-11T02:20:02.856Z,11.61
2018-11-11T02:21:08.459Z,11.60
2018-11-11T02:22:13.923Z,11.57
2018-11-11T02:23:19.456Z,11.55
2018-11-11T02:24:24.997Z,11.57
2018-11-11T02:25:30.529Z,11.57
2018-11-11T02:26:36.066Z,11.58
2018-11-11T02:27:41.611Z,11.57
2018-11-11T02:28:47.148Z,11.52
2018-11-11T02:29:52.678Z,11.55
2018-11-11T02:30:58.220Z,11.52
2018-11-11T02:32:03.759Z,11.58
2018-11-11T02:33:09.297Z,11.60
2018-11-11T02:34:14.835Z,11.57
2018-11-11T02:35:20.367Z,11.55
2018-11-11T02:36:25.913Z,11.60
2018-11-11T02:37:31.443Z,11.55
2018-11-11T02:38:36.992Z,11.54
2018-11-11T02:39:42.517Z,11.47
2018-11-11T02:40:48.053Z,11.49
2018-11-11T02:41:53.592Z,11.52
2018-11-11T02:42:59.129Z,11.47
2018-11-11T02:44:04.669Z,11.47
2018-11-11T02:45:10.206Z,11.52
2018-11-11T02:46:15.741Z,11.44
2018-11-11T02:47:21.281Z,11.52
2018-11-11T02:48:26.817Z,11.51
2018-11-11T02:49:32.357Z,11.46
2018-11-11T02:50:37.950Z,11.47
2018-11-11T02:51:43.425Z,11.42
2018-11-11T02:52:48.963Z,11.36
2018-11-11T02:53:54.503Z,11.40
2018-11-11T02:55:00.067Z,11.44
2018-11-11T02:56:05.576Z,11.42
2018-11-11T02:57:11.118Z,11.43
2018-11-11T02:58:16.653Z,11.44
2018-11-11T02:59:22.188Z,11.46
2018-11-11T03:00:27.732Z,11.40
2018-11-11T03:01:33.264Z,11.39
2018-11-11T03:02:38.806Z,11.39
2018-11-11T03:03:44.344Z,11.37
2018-11-11T03:04:49.878Z,11.46
2018-11-11T03:05:55.415Z,11.44
2018-11-11T03:07:00.956Z,11.40
2018-11-11T03:08:06.484Z,11.40
2018-11-11T03:09:12.029Z,11.43
2018-11-11T03:10:17.567Z,11.40
2018-11-11T03:11:23.099Z,11.43
2018-11-11T03:12:28.639Z,11.40
2018-11-11T03:13:34.179Z,11.40
2018-11-11T03:14:39.718Z,11.44
2018-11-11T03:15:45.270Z,11.44
2018-11-11T03:16:50.787Z,11.46
2018-11-11T03:17:56.326Z,11.44
2018-11-11T03:19:01.860Z,11.47
2018-11-11T03:20:07.400Z,11.47
2018-11-11T03:21:12.938Z,11.46
2018-11-11T03:22:18.471Z,11.44
2018-11-11T03:23:24.014Z,11.44
2018-11-11T03:24:29.552Z,11.39
2018-11-11T03:25:35.084Z,11.44
2018-11-11T03:26:40.627Z,11.43
2018-11-11T03:27:46.166Z,11.40
2018-11-11T03:28:51.696Z,11.49
2018-11-11T03:29:57.238Z,11.43
2018-11-11T03:31:02.779Z,11.40
2018-11-11T03:32:08.319Z,11.42
2018-11-11T03:33:13.854Z,11.40
2018-11-11T03:34:19.387Z,11.44
2018-11-11T03:35:24.920Z,11.39
2018-11-11T03:36:30.463Z,11.40
2018-11-11T03:37:35.995Z,11.36
2018-11-11T03:38:41.537Z,11.32
2018-11-11T03:39:47.073Z,11.35
2018-11-11T03:40:52.612Z,11.39
2018-11-11T03:41:58.145Z,11.37
2018-11-11T03:43:03.683Z,11.35
2018-11-11T03:44:09.220Z,11.39
2018-11-11T03:45:14.761Z,11.36
2018-11-11T03:46:20.299Z,11.32
2018-11-11T03:47:25.831Z,11.29
2018-11-11T03:48:31.375Z,11.29
2018-11-11T03:49:36.911Z,11.32
2018-11-11T03:50:42.450Z,11.36
2018-11-11T03:51:47.987Z,11.33
2018-11-11T03:52:53.520Z,11.36
2018-11-11T03:53:59.058Z,11.29
2018-11-11T03:55:04.598Z,11.36
2018-11-11T03:56:10.130Z,11.29
2018-11-11T03:57:15.671Z,11.29
2018-11-11T03:58:21.211Z,11.33
2018-11-11T03:59:26.745Z,11.37
2018-11-11T04:00:32.277Z,11.29
2018-11-11T04:01:37.820Z,11.33
2018-11-11T04:02:43.355Z,11.32
2018-11-11T04:03:48.897Z,11.36
2018-11-11T04:04:54.428Z,11.33
2018-11-11T04:05:59.971Z,11.37
2018-11-11T04:07:05.511Z,11.33
2018-11-11T04:08:11.041Z,11.24
2018-11-11T04:09:16.578Z,11.29
2018-11-11T04:10:22.146Z,11.36
2018-11-11T04:11:27.650Z,11.36
2018-11-11T04:12:33.196Z,11.32
2018-11-11T04:13:38.730Z,11.35
2018-11-11T04:14:44.266Z,11.28
2018-11-11T04:15:49.798Z,11.29
2018-11-11T04:16:55.337Z,11.39
2018-11-11T04:18:00.878Z,11.39
2018-11-11T04:19:06.420Z,11.35
2018-11-11T04:20:11.959Z,11.35
2018-11-11T04:21:17.486Z,11.35
2018-11-11T04:22:23.023Z,11.40
2018-11-11T04:23:28.562Z,11.29
2018-11-11T04:24:34.099Z,11.33
2018-11-11T04:25:39.642Z,11.39
2018-11-11T04:26:45.187Z,11.36
2018-11-11T04:27:50.711Z,11.33
2018-11-11T04:28:56.257Z,11.32
2018-11-11T04:30:01.793Z,11.28
2018-11-11T04:31:07.321Z,11.28
2018-11-11T04:32:12.858Z,11.28
2018-11-11T04:33:18.400Z,11.35
2018-11-11T04:34:23.931Z,11.32
2018-11-11T04:35:29.481Z,11.28
2018-11-11T04:36:35.015Z,11.27
2018-11-11T04:37:40.559Z,11.33
2018-11-11T04:38:46.084Z,11.29
2018-11-11T04:39:51.626Z,11.25
2018-11-11T04:40:57.159Z,11.29
2018-11-11T04:42:02.699Z,11.33
2018-11-11T04:43:08.234Z,11.24
2018-11-11T04:44:13.768Z,11.22
2018-11-11T04:45:19.314Z,11.29
2018-11-11T04:46:24.907Z,11.28
2018-11-11T04:47:30.386Z,11.28
2018-11-11T04:48:35.921Z,11.21
2018-11-11T04:49:41.456Z,11.25
2018-11-11T04:50:46.998Z,11.25
2018-11-11T04:51:52.538Z,11.18
2018-11-11T04:52:58.067Z,11.24
2018-11-11T04:54:03.608Z,11.24
2018-11-11T04:55:09.145Z,11.25
2018-11-11T04:56:14.680Z,11.24
2018-11-11T04:57:20.214Z,11.29
2018-11-11T04:58:25.754Z,11.25
2018-11-11T04:59:31.295Z,11.29
2018-11-11T05:00:36.831Z,11.29
2018-11-11T05:01:42.457Z,11.25
2018-11-11T05:02:47.912Z,11.28
2018-11-11T05:03:53.446Z,11.28
2018-11-11T05:04:58.976Z,11.22
2018-11-11T05:06:04.513Z,11.25
2018-11-11T05:07:10.053Z,11.24
2018-11-11T05:08:15.593Z,11.24
2018-11-11T05:09:21.136Z,11.28
2018-11-11T05:10:26.662Z,11.17
2018-11-11T05:11:32.203Z,11.17
2018-11-11T05:12:37.742Z,11.21
2018-11-11T05:13:43.275Z,11.18
2018-11-11T05:14:48.820Z,11.17
2018-11-11T05:15:54.354Z,11.15
2018-11-11T05:16:59.883Z,11.17
2018-11-11T05:18:05.425Z,11.24
2018-11-11T05:19:10.965Z,11.22
2018-11-11T05:20:16.505Z,11.17
2018-11-11T05:21:22.034Z,11.18
2018-11-11T05:22:27.573Z,11.19
2018-11-11T05:23:33.116Z,11.15
2018-11-11T05:24:38.650Z,11.17
2018-11-11T05:25:44.185Z,11.14
2018-11-11T05:26:49.723Z,11.18
2018-11-11T05:27:55.258Z,11.17
2018-11-11T05:29:00.799Z,11.15
2018-11-11T05:30:06.336Z,11.04
2018-11-11T05:31:11.870Z,11.10
2018-11-11T05:32:17.414Z,11.10
2018-11-11T05:33:22.945Z,11.06
2018-11-11T05:34:28.483Z,11.07
2018-11-11T05:35:34.015Z,11.04
2018-11-11T05:36:39.560Z,11.10
2018-11-11T05:37:45.092Z,11.10
2018-11-11T05:38:50.635Z,11.14
2018-11-11T05:39:56.170Z,11.09
2018-11-11T05:41:01.708Z,11.10
2018-11-11T05:42:07.240Z,11.03
2018-11-11T05:43:12.785Z,11.09
2018-11-11T05:44:18.320Z,11.11
2018-11-11T05:45:23.861Z,11.17
2018-11-11T05:46:29.391Z,11.09
2018-11-11T05:47:34.932Z,11.11
2018-11-11T05:48:40.463Z,11.09
2018-11-11T05:49:46.006Z,11.10
2018-11-11T05:50:51.539Z,11.06
2018-11-11T05:51:57.085Z,11.10
2018-11-11T05:53:02.624Z,11.11
2018-11-11T05:54:08.155Z,11.02
2018-11-11T05:55:13.688Z,11.09
2018-11-11T05:56:19.229Z,11.07
2018-11-11T05:57:24.762Z,11.07
2018-11-11T05:58:30.297Z,11.14
2018-11-11T05:59:35.842Z,11.09
2018-11-11T06:00:41.374Z,11.14
2018-11-11T06:01:46.916Z,11.03
2018-11-11T06:02:52.447Z,11.04
2018-11-11T06:03:57.983Z,11.03
2018-11-11T06:05:03.525Z,11.00
2018-11-11T06:06:09.060Z,11.03
2018-11-11T06:07:14.596Z,11.06
2018-11-11T06:08:20.141Z,10.99
2018-11-11T06:09:25.676Z,11.03
2018-11-11T06:10:31.209Z,11.07
2018-11-11T06:11:36.745Z,11.04
2018-11-11T06:12:42.285Z,10.89
2018-11-11T06:13:47.823Z,10.88
2018-11-11T06:14:53.355Z,10.94
2018-11-11T06:15:58.895Z,10.86
2018-11-11T06:17:04.432Z,10.94
2018-11-11T06:18:09.971Z,10.94
2018-11-11T06:19:15.504Z,10.94
2018-11-11T06:20:21.044Z,10.96
2018-11-11T06:21:26.576Z,10.91
2018-11-11T06:22:32.120Z,10.89
2018-11-11T06:23:37.652Z,10.86
2018-11-11T06:24:43.191Z,10.85
2018-11-11T06:25:48.729Z,10.94
2018-11-11T06:26:54.268Z,10.86
2018-11-11T06:27:59.802Z,10.81
2018-11-11T06:29:05.341Z,10.86
2018-11-11T06:30:10.884Z,10.85
2018-11-11T06:31:16.417Z,10.88
2018-11-11T06:32:21.948Z,10.85
2018-11-11T06:33:27.490Z,10.84
2018-11-11T06:34:33.026Z,10.88
2018-11-11T06:35:38.565Z,10.96
2018-11-11T06:36:44.097Z,10.88
2018-11-11T06:37:49.632Z,10.81
2018-11-11T06:38:55.173Z,10.99
2018-11-11T06:40:00.713Z,10.94
2018-11-11T06:41:06.243Z,10.91
2018-11-11T06:42:11.779Z,10.76
2018-11-11T06:43:17.324Z,10.82
2018-11-11T06:44:22.856Z,10.88
2018-11-11T06:45:28.392Z,10.96
2018-11-11T06:46:33.929Z,10.99
2018-11-11T06:47:39.465Z,10.84
2018-11-11T06:48:45.002Z,10.88
2018-11-11T06:49:50.544Z,10.89
2018-11-11T06:50:56.077Z,10.92
2018-11-11T06:52:01.618Z,10.86
2018-11-11T06:53:07.157Z,10.96
2018-11-11T06:54:12.693Z,10.88
2018-11-11T06:55:18.229Z,10.92
2018-11-11T06:56:23.763Z,10.91
2018-11-11T06:57:29.302Z,10.91
2018-11-11T06:58:34.835Z,10.92
2018-11-11T06:59:40.379Z,11.00
2018-11-11T07:00:45.919Z,10.91
2018-11-11T07:01:51.450Z,10.92
2018-11-11T07:02:56.985Z,10.94
2018-11-11T07:04:02.529Z,10.97
2018-11-11T07:05:08.062Z,10.96
2018-11-11T07:06:13.594Z,10.99
2018-11-11T07:07:19.170Z,10.89
2018-11-11T07:08:24.672Z,10.94
2018-11-11T07:09:30.208Z,11.00
2018-11-11T07:10:35.743Z,10.94
2018-11-11T07:11:41.279Z,10.96
2018-11-11T07:12:46.820Z,11.07
2018-11-11T07:13:52.361Z,11.03
2018-11-11T07:14:57.897Z,11.03
2018-11-11T07:16:03.433Z,11.04
2018-11-11T07:17:08.971Z,11.09
2018-11-11T07:18:14.504Z,11.07
2018-11-11T07:19:20.043Z,11.03
2018-11-11T07:20:25.582Z,11.03
2018-11-11T07:21:31.119Z,11.04
2018-11-11T07:22:36.652Z,11.07
2018-11-11T07:23:42.250Z,11.10
2018-11-11T07:24:47.726Z,11.06
2018-11-11T07:25:53.269Z,11.00
2018-11-11T07:26:58.808Z,11.02
2018-11-11T07:28:04.336Z,11.07
2018-11-11T07:29:09.875Z,11.07
2018-11-11T07:30:15.418Z,11.07
2018-11-11T07:31:20.970Z,11.10
2018-11-11T07:32:26.487Z,11.14
2018-11-11T07:33:32.022Z,11.09
2018-11-11T07:34:37.595Z,11.15
2018-11-11T07:35:43.119Z,11.15
2018-11-11T07:36:48.635Z,11.15
2018-11-11T07:37:54.188Z,11.09
2018-11-11T07:38:59.706Z,11.14
2018-11-11T07:40:05.246Z,11.09
2018-11-11T07:41:10.821Z,11.19
2018-11-11T07:42:16.337Z,11.18
2018-11-11T07:43:21.856Z,11.18
2018-11-11T07:44:27.396Z,11.21
2018-11-11T07:45:32.932Z,11.18
2018-11-11T07:46:38.467Z,11.19
2018-11-11T07:47:44.026Z,11.28
2018-11-11T07:48:49.541Z,11.32
2018-11-11T07:49:55.084Z,11.32
2018-11-11T07:51:00.620Z,11.36
2018-11-11T07:52:06.246Z,11.29
2018-11-11T07:53:11.692Z,11.37
2018-11-11T07:54:17.231Z,11.40
2018-11-11T07:55:22.819Z,11.39
2018-11-11T07:56:28.312Z,11.43
2018-11-11T07:57:33.866Z,11.54
2018-11-11T07:58:39.377Z,11.52
2018-11-11T07:59:44.916Z,11.55
2018-11-11T08:00:50.450Z,11.60
2018-11-11T08:01:56.015Z,11.57
2018-11-11T08:03:01.538Z,11.57
2018-11-11T08:04:07.065Z,11.65
2018-11-11T08:05:12.601Z,11.65
2018-11-11T08:06:18.136Z,11.78
2018-11-11T08:07:23.676Z,11.80
2018-11-11T08:08:29.212Z,11.86
2018-11-11T08:09:34.752Z,11.75
2018-11-11T08:10:40.290Z,11.86
2018-11-11T08:11:45.828Z,11.83
2018-11-11T08:12:51.367Z,11.88
2018-11-11T08:13:56.899Z,11.86
2018-11-11T08:15:02.438Z,11.98
2018-11-11T08:16:07.981Z,11.94
2018-11-11T08:17:13.519Z,11.85
2018-11-11T08:18:19.052Z,11.94
2018-11-11T08:19:24.596Z,11.94
2018-11-11T08:20:30.125Z,11.99
2018-11-11T08:21:35.664Z,11.95
2018-11-11T08:22:41.201Z,11.94
2018-11-11T08:23:46.741Z,12.01
2018-11-11T08:24:52.275Z,11.85
2018-11-11T08:25:57.815Z,11.88
2018-11-11T08:27:03.357Z,11.88
2018-11-11T08:28:08.892Z,11.95
2018-11-11T08:29:14.425Z,11.95
2018-11-11T08:30:19.961Z,11.99
2018-11-11T08:31:25.499Z,11.99
2018-11-11T08:32:31.038Z,12.05
2018-11-11T08:33:36.574Z,12.02
2018-11-11T08:34:42.113Z,12.02
2018-11-11T08:35:47.661Z,12.01
2018-11-11T08:36:53.188Z,11.91
2018-11-11T08:37:58.729Z,11.98
2018-11-11T08:39:04.263Z,11.91
2018-11-11T08:40:09.801Z,11.94
2018-11-11T08:41:15.338Z,12.02
2018-11-11T08:42:20.899Z,11.96
2018-11-11T08:43:26.413Z,11.96
2018-11-11T08:44:31.952Z,11.95
2018-11-11T08:45:37.487Z,11.96
2018-11-11T08:46:43.031Z,11.91
2018-11-11T08:47:48.564Z,11.99
2018-11-11T08:48:54.101Z,12.04
2018-11-11T08:49:59.640Z,11.96
2018-11-11T08:51:05.181Z,12.04
2018-11-11T08:52:10.713Z,12.02
2018-11-11T08:53:16.303Z,11.95
2018-11-11T08:54:21.787Z,11.94
2018-11-11T08:55:27.327Z,11.98
2018-11-11T08:56:32.865Z,12.01
2018-11-11T08:57:38.405Z,12.04
2018-11-11T08:58:43.939Z,11.99
2018-11-11T08:59:49.478Z,12.02
2018-11-11T09:00:55.018Z,11.99
2018-11-11T09:02:00.553Z,12.02
2018-11-11T09:03:06.096Z,12.02
2018-11-11T09:04:11.628Z,12.04
2018-11-11T09:05:17.170Z,12.10
2018-11-11T09:06:22.756Z,12.12
2018-11-11T09:07:28.239Z,12.17
2018-11-11T09:08:33.778Z,12.09
2018-11-11T09:09:39.315Z,12.14
2018-11-11T09:10:44.857Z,12.13
2018-11-11T09:11:50.389Z,12.23
2018-11-11T09:12:55.930Z,12.19
2018-11-11T09:14:01.464Z,12.24
2018-11-11T09:15:07.001Z,12.27
2018-11-11T09:16:12.550Z,12.35
2018-11-11T09:17:18.092Z,12.37
2018-11-11T09:18:23.618Z,12.37
2018-11-11T09:19:29.154Z,12.37
2018-11-11T09:20:34.706Z,12.38
2018-11-11T09:21:40.233Z,12.31
2018-11-11T09:22:45.774Z,12.39
2018-11-11T09:23:51.378Z,12.35
2018-11-11T09:24:56.842Z,12.39
2018-11-11T09:26:02.382Z,12.42
2018-11-11T09:27:07.928Z,12.37
2018-11-11T09:28:13.456Z,12.38
2018-11-11T09:29:19.012Z,12.46
2018-11-11T09:30:24.597Z,12.53
2018-11-11T09:31:30.075Z,12.54
2018-11-11T09:32:35.609Z,12.52
2018-11-11T09:33:41.145Z,12.54
2018-11-11T09:34:46.682Z,12.47
2018-11-11T09:35:52.227Z,12.50
2018-11-11T09:36:57.758Z,12.62
2018-11-11T09:38:03.297Z,12.54
2018-11-11T09:39:08.956Z,12.49
2018-11-11T09:40:14.373Z,12.57
2018-11-11T09:41:19.910Z,12.54
2018-11-11T09:42:25.474Z,12.52
2018-11-11T09:43:30.988Z,12.56
2018-11-11T09:44:36.526Z,12.57
2018-11-11T09:45:42.064Z,12.59
2018-11-11T09:46:47.601Z,12.68
2018-11-11T09:47:53.270Z,12.64
2018-11-11T09:48:58.682Z,12.67
2018-11-11T09:50:04.216Z,12.62
2018-11-11T09:51:09.751Z,12.57
2018-11-11T09:52:15.297Z,12.67
2018-11-11T09:53:20.828Z,12.65
2018-11-11T09:54:26.366Z,12.60
2018-11-11T09:55:31.902Z,12.60
2018-11-11T09:56:37.440Z,12.67
2018-11-11T09:57:42.985Z,12.64
2018-11-11T09:58:48.599Z,12.56
2018-11-11T09:59:54.144Z,12.57
2018-11-11T10:00:59.591Z,12.57
2018-11-11T10:02:05.133Z,12.50
2018-11-11T10:03:10.668Z,12.54
2018-11-11T10:04:16.205Z,12.52
2018-11-11T10:05:21.743Z,12.54
2018-11-11T10:06:27.378Z,12.52
2018-11-11T10:07:32.821Z,12.45
2018-11-11T10:08:38.357Z,12.54
2018-11-11T10:09:43.901Z,12.46
2018-11-11T10:10:49.433Z,12.50
2018-11-11T10:11:54.971Z,12.50
2018-11-11T10:13:00.512Z,12.52
2018-11-11T10:14:06.045Z,12.46
2018-11-11T10:15:11.585Z,12.50
2018-11-11T10:16:17.130Z,12.47
2018-11-11T10:17:22.666Z,12.47
2018-11-11T10:18:28.206Z,12.50
2018-11-11T10:19:33.744Z,12.52
2018-11-11T10:20:39.311Z,12.50
2018-11-11T10:21:44.814Z,12.49
2018-11-11T10:22:50.353Z,12.49
2018-11-11T10:23:55.888Z,12.54
2018-11-11T10:25:01.430Z,12.56
2018-11-11T10:26:06.965Z,12.54
2018-11-11T10:27:12.558Z,12.52
2018-11-11T10:28:18.040Z,12.62
2018-11-11T10:29:23.627Z,12.57
2018-11-11T10:30:29.124Z,12.52
2018-11-11T10:31:34.660Z,12.59
2018-11-11T10:32:40.192Z,12.57
2018-11-11T10:33:45.734Z,12.60
2018-11-11T10:34:51.267Z,12.60
2018-11-11T10:35:56.806Z,12.60
2018-11-11T10:37:02.344Z,12.62
2018-11-11T10:38:07.886Z,12.64
2018-11-11T10:39:13.488Z,12.74
2018-11-11T10:40:18.957Z,12.67
2018-11-11T10:41:24.497Z,12.74
2018-11-11T10:42:30.034Z,12.72
2018-11-11T10:43:35.576Z,12.71
2018-11-11T10:44:41.108Z,12.68
2018-11-11T10:45:46.650Z,12.75
2018-11-11T10:46:52.190Z,12.67
2018-11-11T10:47:57.729Z,12.78
2018-11-11T10:49:03.265Z,12.78
2018-11-11T10:50:08.806Z,12.83
2018-11-11T10:51:14.337Z,12.79
2018-11-11T10:52:19.882Z,12.82
2018-11-11T10:53:25.415Z,12.83
2018-11-11T10:54:31.053Z,12.82
2018-11-11T10:55:36.494Z,12.78
2018-11-11T10:56:42.031Z,12.79
2018-11-11T10:57:47.574Z,12.89
2018-11-11T10:58:53.110Z,12.86
2018-11-11T10:59:58.679Z,12.85
2018-11-11T11:01:04.180Z,12.85
2018-11-11T11:02:09.719Z,12.87
2018-11-11T11:03:15.259Z,12.87
2018-11-11T11:04:20.795Z,12.97
2018-11-11T11:05:26.336Z,12.89
2018-11-11T11:06:31.870Z,13.03
2018-11-11T11:07:37.410Z,13.03
2018-11-11T11:08:42.949Z,13.07
2018-11-11T11:09:48.486Z,13.01
2018-11-11T11:10:54.030Z,13.10
2018-11-11T11:11:59.567Z,13.08
2018-11-11T11:13:05.120Z,13.07
2018-11-11T11:14:10.642Z,13.12
2018-11-11T11:15:16.173Z,13.19
2018-11-11T11:16:21.721Z,13.15
2018-11-11T11:17:27.252Z,13.20
2018-11-11T11:18:32.797Z,13.25
2018-11-11T11:19:38.331Z,13.23
2018-11-11T11:20:43.871Z,13.25
2018-11-11T11:21:49.410Z,13.23
2018-11-11T11:22:54.980Z,13.26
2018-11-11T11:24:00.485Z,13.36
2018-11-11T11:25:06.020Z,13.36
2018-11-11T11:26:11.566Z,13.39
2018-11-11T11:27:17.203Z,13.42
2018-11-11T11:28:22.636Z,13.41
2018-11-11T11:29:28.186Z,13.41
2018-11-11T11:30:33.714Z,13.42
2018-11-11T11:31:39.316Z,13.44
2018-11-11T11:32:44.788Z,13.46
2018-11-11T11:33:50.328Z,13.46
2018-11-11T11:34:55.864Z,13.39
2018-11-11T11:36:01.405Z,13.46
2018-11-11T11:37:06.946Z,13.59
2018-11-11T11:38:12.538Z,13.59
2018-11-11T11:39:18.021Z,13.48
2018-11-11T11:40:23.564Z,13.49
2018-11-11T11:41:29.200Z,13.55
2018-11-11T11:42:34.637Z,13.60
2018-11-11T11:43:40.170Z,13.52
2018-11-11T11:44:45.715Z,13.52
2018-11-11T11:45:51.257Z,13.55
2018-11-11T11:46:56.788Z,13.60
2018-11-11T11:48:02.325Z,13.62
2018-11-11T11:49:07.863Z,13.63
2018-11-11T11:50:13.420Z,13.64
2018-11-11T11:51:18.941Z,13.62
2018-11-11T11:52:24.538Z,13.59
2018-11-11T11:53:30.019Z,13.69
2018-11-11T11:54:35.563Z,13.69
2018-11-11T11:55:41.096Z,13.71
2018-11-11T11:56:46.640Z,13.73
2018-11-11T11:57:52.194Z,13.75
2018-11-11T11:58:57.709Z,13.70
2018-11-11T12:00:03.255Z,13.73
2018-11-11T12:01:08.789Z,13.81
2018-11-11T12:02:14.353Z,13.75
2018-11-11T12:03:19.871Z,13.84
2018-11-11T12:04:25.406Z,13.78
2018-11-11T12:05:30.945Z,13.82
2018-11-11T12:06:36.479Z,13.79
2018-11-11T12:07:42.022Z,13.79
2018-11-11T12:08:47.658Z,13.69
2018-11-11T12:09:53.102Z,13.57
2018-11-11T12:10:58.642Z,13.63
2018-11-11T12:12:04.179Z,13.66
2018-11-11T12:13:09.715Z,13.60
2018-11-11T12:14:15.249Z,13.67
2018-11-11T12:15:20.792Z,13.64
2018-11-11T12:16:26.353Z,13.67
2018-11-11T12:17:31.872Z,13.69
2018-11-11T12:18:37.405Z,13.64
2018-11-11T12:19:42.952Z,13.71
2018-11-11T12:20:48.480Z,13.75
2018-11-11T12:21:54.020Z,13.78
2018-11-11T12:22:59.626Z,13.79
2018-11-11T12:24:05.099Z,13.88
2018-11-11T12:25:10.642Z,13.88
2018-11-11T12:26:16.179Z,13.91
2018-11-11T12:27:21.730Z,13.87
2018-11-11T12:28:27.258Z,13.91
2018-11-11T12:29:32.792Z,14.00
2018-11-11T12:30:38.371Z,14.00
2018-11-11T12:31:43.867Z,14.06
2018-11-11T12:32:49.406Z,14.12
2018-11-11T12:33:54.945Z,14.09
2018-11-11T12:35:00.546Z,14.14
2018-11-11T12:36:06.023Z,14.21
2018-11-11T12:37:11.562Z,14.14
2018-11-11T12:38:17.102Z,14.32
2018-11-11T12:39:22.685Z,14.24
2018-11-11T12:40:28.178Z,14.36
2018-11-11T12:41:33.717Z,14.42
2018-11-11T12:42:39.255Z,14.35
2018-11-11T12:43:44.793Z,14.33
2018-11-11T12:44:50.390Z,14.36
2018-11-11T12:45:55.884Z,14.29
2018-11-11T12:47:01.536Z,14.36
2018-11-11T12:48:06.951Z,14.43
2018-11-11T12:49:12.563Z,14.47
2018-11-11T12:50:18.085Z,14.46
2018-11-11T12:51:23.574Z,14.43
2018-11-11T12:52:29.110Z,14.37
2018-11-11T12:53:34.645Z,14.42
2018-11-11T12:54:40.234Z,14.33
2018-11-11T12:55:45.723Z,14.37
2018-11-11T12:56:51.263Z,14.33
2018-11-11T12:57:56.811Z,14.36
2018-11-11T12:59:02.339Z,14.29
2018-11-11T13:00:07.882Z,14.32
2018-11-11T13:01:13.423Z,14.36
2018-11-11T13:02:18.952Z,14.33
2018-11-11T13:03:24.503Z,14.37
2018-11-11T13:04:30.036Z,14.35
2018-11-11T13:05:35.573Z,14.29
2018-11-11T13:06:41.118Z,14.29
2018-11-11T13:07:46.655Z,14.20
2018-11-11T13:08:52.189Z,14.22
2018-11-11T13:09:57.732Z,14.25
2018-11-11T13:11:03.269Z,14.33
2018-11-11T13:12:08.936Z,14.36
2018-11-11T13:13:14.348Z,14.25
2018-11-11T13:14:19.887Z,14.25
2018-11-11T13:15:25.423Z,14.20
2018-11-11T13:16:30.968Z,14.18
2018-11-11T13:17:36.499Z,14.14
2018-11-11T13:18:42.039Z,14.09
2018-11-11T13:19:47.595Z,14.15
2018-11-11T13:20:53.117Z,14.06
2018-11-11T13:21:58.666Z,14.07
2018-11-11T13:23:04.270Z,14.09
2018-11-11T13:24:09.738Z,14.07
2018-11-11T13:25:15.269Z,14.14
2018-11-11T13:26:20.819Z,14.09
2018-11-11T13:27:26.353Z,14.04
2018-11-11T13:28:31.892Z,13.99
2018-11-11T13:29:37.430Z,13.97
2018-11-11T13:30:42.965Z,14.00
2018-11-11T13:31:48.526Z,14.06
2018-11-11T13:32:54.045Z,14.10
2018-11-11T13:33:59.582Z,14.07
2018-11-11T13:35:05.121Z,14.07
2018-11-11T13:36:10.663Z,14.10
2018-11-11T13:37:16.197Z,14.12
2018-11-11T13:38:21.829Z,14.18
2018-11-11T13:39:27.287Z,14.07
2018-11-11T13:40:32.814Z,14.07
2018-11-11T13:41:38.409Z,14.12
2018-11-11T13:42:43.893Z,14.10
2018-11-11T13:43:49.436Z,14.12
2018-11-11T13:44:54.971Z,14.15
2018-11-11T13:46:00.507Z,14.12
2018-11-11T13:47:06.051Z,14.07
2018-11-11T13:48:11.586Z,14.12
2018-11-11T13:49:17.125Z,14.12
2018-11-11T13:50:22.734Z,14.06
2018-11-11T13:51:28.212Z,14.02
2018-11-11T13:52:33.748Z,14.07
2018-11-11T13:53:39.281Z,14.06
2018-11-11T13:54:44.820Z,14.14
2018-11-11T13:55:50.417Z,14.12
2018-11-11T13:56:55.897Z,14.02
2018-11-11T13:58:01.433Z,13.99
2018-11-11T13:59:06.975Z,14.00
2018-11-11T14:00:12.515Z,14.00
2018-11-11T14:01:18.051Z,13.91
2018-11-11T14:02:23.587Z,13.88
2018-11-11T14:03:29.127Z,13.96